Terminal Aerodrome Forecast
Issued by NWS

Current Version | Previous Version | Text Only | Print | Product List | Glossary On
Versions: 1 2 3 4 5 6 7 8 9 10 11 12 13 14
000
FTUS42 KMHX 092300 RRA
TAFPGV
TAF
KPGV 092349Z 1000/1024 21010G16KT P6SM VCTS BKN040CB
     FM100200 20010KT P6SM SCT050 BKN120
      AMD LTD TO CLD VIS AND WIND=

USA.gov is the U.S. government's official web portal to all federal, state and local government web resources and services.